Time;durP1;ratioP1;P1;durP2;ratioP2;P2;SDS_P1;SDS_P2;PMS_P1;PMS_P2;Temp;Humidity;BMP_temperature;BMP_pressure;BME280_temperature;BME280_humidity;BME280_pressure;Samples;Min_cycle;Max_cycle;Signal;HPM_P1;HPM_P2
2022/04/12 00:00:48;;;;;;;10.35;7.65;;;;;;;9.71;67.07;101041.53;10354653;28;20057;-74
2022/04/12 00:05:49;;;;;;;9.88;7.25;;;;;;;9.71;66.35;101043.41;10338423;28;20125;-74
2022/04/12 00:10:50;;;;;;;14.00;7.78;;;;;;;9.66;67.03;101049.34;10340673;28;20035;-75
2022/04/12 00:15:50;;;;;;;12.48;6.65;;;;;;;9.48;67.47;101048.94;10354678;28;20070;-74
2022/04/12 00:20:53;;;;;;;10.68;8.40;;;;;;;9.42;67.95;101037.00;10320869;28;20026;-75
2022/04/12 00:25:53;;;;;;;8.30;7.13;;;;;;;9.30;68.56;101042.00;10352731;28;20046;-74
2022/04/12 00:30:53;;;;;;;8.48;7.25;;;;;;;9.22;68.87;101052.06;10337278;28;20031;-73
2022/04/12 00:35:56;;;;;;;10.15;5.88;;;;;;;9.21;68.96;101045.81;10354295;28;20538;-73
2022/04/12 00:40:56;;;;;;;8.27;7.45;;;;;;;9.08;69.86;101041.06;10355810;28;20034;-74
2022/04/12 00:46:02;;;;;;;11.10;8.02;;;;;;;9.03;70.16;101035.38;10341324;28;20038;-74
2022/04/12 00:51:03;;;;;;;12.73;7.27;;;;;;;8.99;70.26;101028.66;10354927;28;20043;-74
2022/04/12 00:56:04;;;;;;;8.05;7.28;;;;;;;8.93;70.82;101017.75;10339353;28;20530;-74
2022/04/12 01:01:04;;;;;;;7.57;6.60;;;;;;;8.88;70.81;101020.19;10337266;28;20038;-74
2022/04/12 01:06:04;;;;;;;9.75;7.28;;;;;;;8.88;70.99;101020.19;10352445;28;20038;-74
2022/04/12 01:11:07;;;;;;;8.73;6.03;;;;;;;8.79;71.09;101009.44;10336404;28;20110;-74
2022/04/12 01:16:07;;;;;;;8.07;7.20;;;;;;;8.78;71.69;101012.34;10334459;28;20041;-75
2022/04/12 01:21:08;;;;;;;9.85;7.60;;;;;;;8.73;71.50;101025.53;10335137;28;20050;-74
2022/04/12 01:26:08;;;;;;;10.57;7.50;;;;;;;8.60;72.55;101020.75;10350018;28;20454;-74
2022/04/12 01:31:08;;;;;;;8.90;6.85;;;;;;;8.58;72.64;101023.66;10334843;28;20113;-74
2022/04/12 01:36:09;;;;;;;9.18;7.57;;;;;;;8.49;73.35;101013.09;10336919;28;20370;-74
2022/04/12 01:41:09;;;;;;;10.35;7.35;;;;;;;8.41;73.63;101010.44;10336217;28;20117;-74
2022/04/12 01:46:10;;;;;;;9.75;7.80;;;;;;;8.34;74.29;101004.91;10349440;28;20467;-74
2022/04/12 01:51:10;;;;;;;8.43;7.47;;;;;;;8.28;74.39;101001.06;10334370;28;20034;-74
2022/04/12 01:56:10;;;;;;;6.95;5.82;;;;;;;8.28;74.72;100994.84;10333438;28;20027;-74
2022/04/12 02:01:11;;;;;;;8.45;7.32;;;;;;;8.25;74.17;100996.03;10334146;28;20030;-74
2022/04/12 02:06:11;;;;;;;17.70;8.20;;;;;;;8.21;74.49;100996.56;10332791;28;20525;-74
2022/04/12 02:11:12;;;;;;;7.35;6.63;;;;;;;8.16;74.80;101000.63;10350643;28;20120;-74
2022/04/12 02:16:12;;;;;;;22.10;7.65;;;;;;;8.07;75.93;100976.59;10349479;28;20043;-74
2022/04/12 02:21:12;;;;;;;10.65;7.55;;;;;;;7.99;76.63;100977.50;10334235;28;20390;-74
2022/04/12 02:26:13;;;;;;;10.25;7.00;;;;;;;7.90;76.81;100976.69;10335456;28;20490;-74
2022/04/12 02:31:13;;;;;;;8.80;7.82;;;;;;;7.83;77.49;100977.59;10341575;28;20121;-74
2022/04/12 02:36:13;;;;;;;9.20;8.05;;;;;;;7.79;77.50;100973.59;10357905;28;20546;-74
2022/04/12 02:41:14;;;;;;;7.68;6.03;;;;;;;7.69;78.26;100953.09;10358495;28;20030;-74
2022/04/12 02:46:14;;;;;;;9.20;7.78;;;;;;;7.74;77.81;100940.94;10339918;28;20076;-74
2022/04/12 02:51:15;;;;;;;8.48;7.13;;;;;;;7.68;78.09;100955.94;10340926;28;20080;-74
2022/04/12 02:56:15;;;;;;;10.20;8.40;;;;;;;7.67;77.48;100941.63;10355771;28;20471;-74
2022/04/12 03:01:16;;;;;;;8.73;7.18;;;;;;;7.67;77.10;100952.41;10323622;28;20034;-74
2022/04/12 03:06:16;;;;;;;11.73;8.00;;;;;;;7.56;78.24;100947.44;10356908;28;20039;-74
2022/04/12 03:11:16;;;;;;;7.78;6.88;;;;;;;7.56;78.37;100943.88;10341794;28;20081;-74
2022/04/12 03:16:17;;;;;;;9.02;7.18;;;;;;;7.57;78.44;100943.72;10355948;28;20386;-74
2022/04/12 03:21:17;;;;;;;10.07;6.18;;;;;;;7.59;78.07;100954.31;10342256;28;20041;-74
2022/04/12 03:26:18;;;;;;;7.32;6.63;;;;;;;7.63;78.26;100936.78;10343122;28;20050;-74
2022/04/12 03:31:18;;;;;;;10.48;7.43;;;;;;;7.70;77.29;100932.34;10339486;28;20057;-74
2022/04/12 03:36:19;;;;;;;7.70;7.00;;;;;;;7.82;77.15;100936.34;10339883;28;20116;-74
2022/04/12 03:41:22;;;;;;;11.02;6.32;;;;;;;7.98;75.87;100942.63;10338121;28;20482;-74
2022/04/12 03:46:23;;;;;;;10.13;5.68;;;;;;;7.96;75.78;100958.97;10339386;28;20042;-75
2022/04/12 03:51:23;;;;;;;8.43;7.55;;;;;;;7.92;74.92;100961.19;10338621;28;20449;-74
2022/04/12 03:56:24;;;;;;;10.95;7.40;;;;;;;7.83;74.75;100983.00;10338531;28;20126;-74
2022/04/12 04:01:25;;;;;;;13.07;7.13;;;;;;;7.65;76.38;100967.91;10337610;28;20070;-74
2022/04/12 04:06:25;;;;;;;9.95;7.10;;;;;;;7.60;77.22;100954.16;10338852;28;20467;-73
2022/04/12 04:11:26;;;;;;;10.45;7.40;;;;;;;7.61;77.51;100930.72;10339683;28;20049;-74
2022/04/12 04:16:26;;;;;;;6.75;6.03;;;;;;;7.60;77.68;100908.34;10337096;28;20058;-74
2022/04/12 04:21:27;;;;;;;7.28;5.90;;;;;;;7.64;76.88;100923.13;10336880;28;20031;-74
2022/04/12 04:26:27;;;;;;;6.88;5.88;;;;;;;7.71;76.25;100923.25;10352640;28;20061;-74
2022/04/12 04:31:27;;;;;;;7.97;7.10;;;;;;;7.72;75.96;100910.59;10337861;28;20070;-74
2022/04/12 04:36:28;;;;;;;7.65;6.65;;;;;;;7.73;75.96;100913.13;10338555;28;20038;-74
2022/04/12 04:41:28;;;;;;;7.72;7.07;;;;;;;7.73;75.55;100918.53;10342743;28;20034;-75
2022/04/12 04:46:29;;;;;;;9.98;6.80;;;;;;;7.67;76.38;100914.69;10358450;28;20049;-73
2022/04/12 04:51:29;;;;;;;10.43;5.88;;;;;;;7.64;76.50;100915.03;10356279;28;20050;-74
2022/04/12 04:56:30;;;;;;;8.95;7.22;;;;;;;7.54;77.48;100922.50;10336700;28;20085;-73
2022/04/12 05:01:30;;;;;;;8.25;6.03;;;;;;;7.49;77.44;100916.81;10336388;28;20100;-74
2022/04/12 05:06:31;;;;;;;8.38;5.85;;;;;;;7.39;78.78;100913.50;10338146;28;20477;-72
2022/04/12 05:11:31;;;;;;;10.38;7.47;;;;;;;7.43;77.62;100937.22;10336231;28;20038;-74
2022/04/12 05:16:32;;;;;;;9.00;7.10;;;;;;;7.45;77.08;100945.97;10336001;28;20097;-74
2022/04/12 05:21:32;;;;;;;6.95;6.00;;;;;;;7.41;78.27;100959.97;10337069;28;20045;-74
2022/04/12 05:26:33;;;;;;;11.48;7.40;;;;;;;7.50;77.81;100952.66;10336703;28;20061;-74
2022/04/12 05:31:33;;;;;;;19.30;7.50;;;;;;;7.54;77.92;100940.53;10334017;28;20069;-74
2022/04/12 05:36:33;;;;;;;7.05;5.45;;;;;;;7.66;77.44;100933.75;10334839;28;20049;-74
2022/04/12 05:41:34;;;;;;;6.25;5.35;;;;;;;7.78;76.75;100929.59;10349903;28;20042;-73
2022/04/12 05:46:34;;;;;;;10.43;6.57;;;;;;;8.02;75.69;100925.06;10335304;28;20047;-73
2022/04/12 05:51:35;;;;;;;9.63;6.70;;;;;;;8.55;74.47;100921.44;10335378;28;20080;-73
2022/04/12 05:56:35;;;;;;;8.10;6.07;;;;;;;9.57;70.39;100919.88;10350316;28;20458;-74
2022/04/12 06:01:36;;;;;;;5.95;5.45;;;;;;;10.25;66.86;100905.81;10335249;28;20116;-74
2022/04/12 06:06:36;;;;;;;7.40;6.63;;;;;;;10.78;65.25;100915.38;10336014;28;20063;-74
2022/04/12 06:11:36;;;;;;;6.68;5.97;;;;;;;11.38;64.38;100930.09;10336078;28;20065;-74
2022/04/12 06:16:37;;;;;;;7.22;5.72;;;;;;;11.62;62.20;100935.00;10335259;28;20057;-74
2022/04/12 06:21:37;;;;;;;6.28;5.68;;;;;;;11.79;61.73;100940.03;10333504;28;20042;-74
2022/04/12 06:26:38;;;;;;;6.63;5.38;;;;;;;11.52;61.78;100939.09;10335028;28;20058;-74
2022/04/12 06:31:38;;;;;;;9.02;5.80;;;;;;;11.50;62.26;100936.59;10334695;28;20489;-74
2022/04/12 06:36:38;;;;;;;8.65;6.50;;;;;;;11.99;61.32;100910.25;10333509;28;20042;-74
2022/04/12 06:41:39;;;;;;;10.65;7.05;;;;;;;12.36;59.60;100910.72;10349468;28;20035;-74
2022/04/12 06:46:39;;;;;;;5.72;5.13;;;;;;;12.55;58.93;100920.75;10333683;28;20487;-74
2022/04/12 06:51:39;;;;;;;5.38;4.88;;;;;;;12.79;58.02;100917.38;10332400;28;20042;-74
2022/04/12 06:56:40;;;;;;;8.27;6.10;;;;;;;13.12;57.09;100911.03;10348306;28;20038;-74
2022/04/12 07:01:41;;;;;;;7.30;5.47;;;;;;;13.28;56.09;100898.88;10331205;28;20046;-74
2022/04/12 07:06:41;;;;;;;5.88;5.35;;;;;;;13.68;55.17;100910.38;10332497;28;20403;-74
2022/04/12 07:11:42;;;;;;;5.47;4.80;;;;;;;14.09;53.47;100919.97;10332313;28;20034;-74
2022/04/12 07:16:42;;;;;;;7.45;6.75;;;;;;;14.54;53.34;100928.03;10336834;28;20046;-74
2022/04/12 07:21:43;;;;;;;7.70;5.13;;;;;;;14.03;53.28;100922.72;10324408;28;20413;-74
2022/04/12 07:26:43;;;;;;;11.68;5.70;;;;;;;14.31;53.72;100916.88;10354927;28;20192;-75
2022/04/12 07:31:43;;;;;;;13.55;6.60;;;;;;;14.37;53.23;100913.28;10338659;28;20042;-74
2022/04/12 07:36:47;;;;;;;8.23;5.53;;;;;;;14.65;52.77;100900.03;10339420;28;20125;-74
2022/04/12 07:41:48;;;;;;;6.93;5.53;;;;;;;15.50;51.88;100902.00;10337974;28;20390;-74
2022/04/12 07:46:48;;;;;;;9.07;5.35;;;;;;;15.77;50.58;100894.34;10321834;28;20034;-74
2022/04/12 07:51:48;;;;;;;10.02;6.25;;;;;;;16.27;49.97;100896.72;10339088;28;20524;-74
2022/04/12 07:56:49;;;;;;;6.15;5.55;;;;;;;16.62;47.89;100892.31;10337608;28;20053;-74
2022/04/12 08:01:49;;;;;;;4.82;4.43;;;;;;;16.61;47.70;100915.28;10337624;28;20382;-74
2022/04/12 08:06:51;;;;;;;10.98;5.25;;;;;;;16.19;48.52;100924.38;10337572;28;20053;-75
2022/04/12 08:11:51;;;;;;;7.25;6.13;;;;;;;16.24;49.01;100929.13;10338023;28;20034;-74
2022/04/12 08:16:52;;;;;;;9.27;6.28;;;;;;;16.73;48.13;100932.53;10339014;28;20375;-74
2022/04/12 08:21:52;;;;;;;10.85;4.57;;;;;;;16.96;48.25;100910.66;10338332;28;20347;-75
2022/04/12 08:26:53;;;;;;;6.78;5.75;;;;;;;18.03;45.60;100900.22;10339413;28;20055;-75
2022/04/12 08:31:53;;;;;;;7.75;4.63;;;;;;;18.81;44.71;100909.47;10338059;28;20449;-75
2022/04/12 08:36:54;;;;;;;13.75;5.70;;;;;;;19.14;41.45;100914.03;10338851;28;20097;-75
2022/04/12 08:41:54;;;;;;;7.22;4.72;;;;;;;19.35;40.87;100895.09;10338248;28;20030;-75
2022/04/12 08:46:55;;;;;;;5.18;4.68;;;;;;;19.80;41.06;100889.28;10356432;28;20090;-75
2022/04/12 08:51:56;;;;;;;7.03;4.50;;;;;;;19.91;39.69;100873.72;10339882;28;20058;-75
2022/04/12 08:56:56;;;;;;;6.07;4.25;;;;;;;19.80;40.84;100863.75;10335848;28;20054;-75
2022/04/12 09:01:57;;;;;;;6.70;5.50;;;;;;;19.99;40.22;100851.28;10337403;28;20389;-75
2022/04/12 09:06:58;;;;;;;5.65;5.10;;;;;;;20.16;40.29;100864.88;10350917;28;20062;-75
2022/04/12 09:12:06;;;;;;;9.50;4.20;;;;;;;20.10;39.71;100850.28;10335826;28;20041;-75
2022/04/12 09:17:08;;;;;;;6.13;4.65;;;;;;;20.15;40.21;100841.25;10336201;28;20042;-75
2022/04/12 09:22:11;;;;;;;7.13;5.05;;;;;;;20.38;39.81;100848.28;10333326;28;20042;-75
2022/04/12 09:27:13;;;;;;;8.82;5.47;;;;;;;20.86;38.93;100857.41;10318456;28;20041;-75
2022/04/12 09:32:15;;;;;;;5.20;4.70;;;;;;;20.87;38.86;100851.66;10318750;28;20089;-75
2022/04/12 09:37:18;;;;;;;8.52;6.05;;;;;;;21.17;39.29;100852.88;10333234;28;20066;-75
2022/04/12 09:42:20;;;;;;;7.75;5.00;;;;;;;21.27;38.80;100844.66;10335207;28;20042;-75
2022/04/12 09:47:20;;;;;;;5.82;5.20;;;;;;;21.04;39.43;100840.44;10317976;28;20042;-75
2022/04/12 09:52:22;;;;;;;7.03;5.35;;;;;;;20.75;39.88;100819.94;10335095;28;20034;-75
2022/04/12 09:57:23;;;;;;;5.30;4.75;;;;;;;20.98;39.40;100816.75;10334044;28;20057;-75
2022/04/12 10:02:25;;;;;;;10.00;5.82;;;;;;;20.79;40.51;100812.81;10351853;28;20109;-75
2022/04/12 10:07:25;;;;;;;5.75;4.40;;;;;;;20.29;40.22;100789.38;10349643;28;20092;-75
2022/04/12 10:12:25;;;;;;;4.97;4.40;;;;;;;19.51;42.39;100779.66;10332629;28;20034;-75
2022/04/12 10:17:26;;;;;;;5.93;4.15;;;;;;;19.40;43.81;100782.53;10334036;28;20041;-75
2022/04/12 10:22:26;;;;;;;6.35;5.35;;;;;;;19.19;44.75;100801.56;10333103;28;20106;-75
2022/04/12 10:27:27;;;;;;;6.25;4.78;;;;;;;19.25;45.00;100803.28;10333334;28;20061;-76
2022/04/12 10:32:28;;;;;;;6.22;4.45;;;;;;;19.18;45.77;100801.81;10316724;28;20110;-75
2022/04/12 10:37:28;;;;;;;10.63;4.43;;;;;;;19.51;45.56;100795.28;10334042;28;20046;-75
2022/04/12 10:42:31;;;;;;;6.53;3.95;;;;;;;19.77;45.47;100790.91;10332775;28;20066;-75
2022/04/12 10:47:32;;;;;;;5.47;4.60;;;;;;;19.78;45.44;100770.56;10333692;28;20104;-75
2022/04/12 10:52:36;;;;;;;8.27;4.80;;;;;;;20.06;44.84;100783.16;10340327;28;20084;-75
2022/04/12 10:57:37;;;;;;;9.40;4.95;;;;;;;19.27;46.82;100790.13;10341305;28;20113;-75
2022/04/12 11:02:54;;;;;;;10.75;4.97;;;;;;;18.88;48.72;100783.06;10356552;28;20165;-75
2022/04/12 11:07:54;;;;;;;9.63;4.38;;;;;;;19.00;49.30;100776.34;10341780;28;20039;-75
2022/04/12 11:13:26;;;;;;;8.07;4.55;;;;;;;19.64;46.98;100774.84;10341811;28;20148;-75
2022/04/12 11:19:02;;;;;;;7.57;5.45;;;;;;;20.81;43.53;100761.91;10337592;28;20042;-75
2022/04/12 11:24:04;;;;;;;9.20;5.07;;;;;;;22.10;41.46;100776.72;10276849;28;20406;-75
2022/04/12 11:29:12;;;;;;;9.57;4.57;;;;;;;23.09;38.69;100782.53;10345756;28;20034;-75
2022/04/12 11:34:12;;;;;;;6.95;5.47;;;;;;;22.75;38.87;100775.78;10344248;28;20030;-76
2022/04/12 11:39:21;;;;;;;6.45;4.93;;;;;;;22.79;37.69;100800.88;10355647;28;20530;-75
2022/04/12 11:44:22;;;;;;;6.50;4.65;;;;;;;22.88;38.07;100792.84;10321653;28;20035;-75
2022/04/12 11:49:27;;;;;;;7.80;4.88;;;;;;;23.11;38.72;100791.38;10339780;28;20046;-76
2022/04/12 11:54:39;;;;;;;6.93;6.30;;;;;;;23.57;37.81;100800.22;10339564;28;20435;-75
2022/04/12 11:59:47;;;;;;;6.47;4.88;;;;;;;23.34;37.31;100790.69;10337217;28;20042;-75
2022/04/12 12:04:52;;;;;;;7.97;5.90;;;;;;;23.58;37.27;100789.97;10337070;28;20431;-76
2022/04/12 12:09:57;;;;;;;5.90;5.40;;;;;;;23.65;37.07;100768.38;10337287;28;20034;-76
2022/04/12 12:14:57;;;;;;;5.65;4.85;;;;;;;23.69;37.14;100769.47;10338829;28;20129;-76
2022/04/12 12:19:57;;;;;;;8.60;4.53;;;;;;;23.57;36.91;100752.41;10353656;28;20462;-76
2022/04/12 12:24:58;;;;;;;6.43;4.68;;;;;;;23.57;36.90;100752.41;10338876;28;20157;-75
2022/04/12 12:30:19;;;;;;;7.07;4.70;;;;;;;23.49;37.02;100742.78;10337776;28;20054;-76
2022/04/12 12:35:20;;;;;;;9.68;4.55;;;;;;;23.49;37.74;100753.03;10339176;28;20074;-76
2022/04/12 12:40:21;;;;;;;6.72;5.00;;;;;;;23.89;37.31;100741.63;10352519;28;20118;-75
2022/04/12 12:45:22;;;;;;;6.43;3.83;;;;;;;23.87;36.93;100738.34;10337693;28;20378;-76
2022/04/12 12:50:24;;;;;;;8.70;5.68;;;;;;;24.03;37.01;100750.09;10338581;28;20046;-75
2022/04/12 12:55:26;;;;;;;8.13;5.38;;;;;;;24.00;37.25;100741.56;10337806;28;20057;-76
2022/04/12 13:00:28;;;;;;;12.40;6.13;;;;;;;23.93;36.76;100735.53;10318866;28;20046;-76
2022/04/12 13:05:28;;;;;;;6.28;5.47;;;;;;;23.41;37.65;100760.78;10350316;28;20113;-75
2022/04/12 13:10:35;;;;;;;16.42;6.32;;;;;;;23.71;36.93;100736.84;10351078;28;20121;-76
2022/04/12 13:15:35;;;;;;;5.05;4.65;;;;;;;23.96;36.12;100721.13;10335590;28;20035;-76
2022/04/12 13:20:36;;;;;;;6.63;4.57;;;;;;;23.86;35.89;100717.31;10351107;28;20042;-76
2022/04/12 13:25:36;;;;;;;6.22;4.53;;;;;;;23.59;36.17;100697.66;10332807;28;20062;-76
2022/04/12 13:30:36;;;;;;;4.40;3.95;;;;;;;23.72;36.63;100702.53;10334365;28;20100;-76
2022/04/12 13:35:37;;;;;;;5.40;4.63;;;;;;;23.97;36.20;100704.25;10333420;28;20046;-76
2022/04/12 13:40:37;;;;;;;7.47;5.38;;;;;;;24.00;35.47;100698.13;10300864;28;20042;-76
2022/04/12 13:45:41;;;;;;;7.80;5.45;;;;;;;24.08;34.92;100702.19;10349599;28;20077;-76
2022/04/12 13:50:41;;;;;;;7.90;4.68;;;;;;;24.03;34.18;100696.72;10334067;28;20034;-76
2022/04/12 13:55:41;;;;;;;5.40;4.90;;;;;;;23.59;35.78;100697.66;10333490;28;20421;-76
2022/04/12 14:00:43;;;;;;;7.13;4.63;;;;;;;23.54;35.36;100695.75;10350010;28;20467;-76
2022/04/12 14:05:46;;;;;;;6.88;5.03;;;;;;;23.65;35.55;100696.50;10334221;28;20042;-76
2022/04/12 14:10:46;;;;;;;6.25;5.20;;;;;;;23.81;35.51;100695.28;10351404;28;20496;-75
2022/04/12 14:15:46;;;;;;;5.57;5.07;;;;;;;24.59;35.86;100682.25;10306067;28;20122;-75
2022/04/12 14:20:51;;;;;;;9.23;5.90;;;;;;;24.11;35.19;100672.00;10350421;28;20493;-77
2022/04/12 14:25:52;;;;;;;6.03;5.40;;;;;;;24.18;36.09;100677.16;10336688;28;20050;-76
2022/04/12 14:30:53;;;;;;;8.02;4.85;;;;;;;24.36;34.46;100700.50;10325003;28;20046;-76
2022/04/12 14:35:53;;;;;;;6.90;6.03;;;;;;;24.29;34.81;100700.84;10340968;28;20041;-76
2022/04/12 14:40:56;;;;;;;8.40;5.72;;;;;;;23.54;36.05;100712.31;10340038;28;20534;-76
2022/04/12 14:45:58;;;;;;;6.15;5.55;;;;;;;23.39;36.43;100698.66;10342002;28;20042;-76
2022/04/12 14:50:59;;;;;;;8.73;5.72;;;;;;;23.30;36.15;100684.63;10341637;28;20034;-76
2022/04/12 14:55:59;;;;;;;7.28;5.95;;;;;;;22.92;37.22;100703.63;10323466;28;20140;-76
2022/04/12 15:01:01;;;;;;;6.85;5.38;;;;;;;22.56;38.36;100719.53;10355641;28;20494;-76
2022/04/12 15:06:02;;;;;;;8.32;6.10;;;;;;;22.32;39.12;100708.28;10339646;28;20505;-76
2022/04/12 15:11:05;;;;;;;8.13;7.38;;;;;;;22.04;39.65;100707.78;10322979;28;20054;-76
2022/04/12 15:16:05;;;;;;;12.82;5.55;;;;;;;21.83;39.99;100707.00;10339605;28;20060;-76
2022/04/12 15:21:06;;;;;;;6.57;5.60;;;;;;;21.73;40.54;100700.66;10307783;28;20023;-76
2022/04/12 15:26:06;;;;;;;9.82;7.03;;;;;;;21.67;40.76;100691.56;10355126;28;20367;-76
2022/04/12 15:31:09;;;;;;;7.65;6.15;;;;;;;21.79;40.62;100691.28;10339186;28;20125;-76
2022/04/12 15:36:10;;;;;;;8.95;5.80;;;;;;;21.76;40.41;100719.38;10321284;28;20381;-76
2022/04/12 15:41:11;;;;;;;6.85;4.38;;;;;;;21.66;39.67;100735.94;10338316;28;20041;-75
2022/04/12 15:46:18;;;;;;;6.15;4.63;;;;;;;21.46;39.68;100740.34;10339338;28;20454;-76
2022/04/12 15:51:18;;;;;;;8.20;4.68;;;;;;;21.37;39.60;100730.94;10323771;28;20056;-76
2022/04/12 15:56:23;;;;;;;7.78;5.07;;;;;;;21.40;40.87;100746.94;10337068;28;20456;-76
2022/04/12 16:01:23;;;;;;;5.57;4.90;;;;;;;21.29;41.34;100748.00;10338168;28;20030;-75
2022/04/12 16:06:25;;;;;;;6.05;5.32;;;;;;;21.30;42.02;100755.16;10338444;28;20077;-76
2022/04/12 16:11:26;;;;;;;6.00;4.30;;;;;;;21.22;42.33;100767.53;10338511;28;20109;-76
2022/04/12 16:16:28;;;;;;;9.98;5.63;;;;;;;21.18;43.18;100769.16;10339943;28;20113;-76
2022/04/12 16:21:28;;;;;;;12.65;5.72;;;;;;;20.98;43.16;100769.94;10336420;28;20037;-76
2022/04/12 16:26:29;;;;;;;16.45;5.88;;;;;;;20.98;43.43;100772.69;10337575;28;20085;-76
2022/04/12 16:31:29;;;;;;;9.52;5.53;;;;;;;20.93;44.01;100778.19;10337782;28;20050;-75
2022/04/12 16:36:29;;;;;;;7.22;5.65;;;;;;;20.89;44.48;100780.63;10337241;28;20038;-75
2022/04/12 16:41:30;;;;;;;8.75;5.85;;;;;;;20.86;44.56;100772.91;10339279;28;20124;-75
2022/04/12 16:46:36;;;;;;;9.18;5.55;;;;;;;20.88;44.96;100775.41;10338176;28;20072;-75
2022/04/12 16:51:36;;;;;;;8.37;5.20;;;;;;;20.79;44.99;100780.59;10338779;28;20031;-75
2022/04/12 16:56:36;;;;;;;9.05;4.90;;;;;;;20.82;45.25;100791.06;10355561;28;20058;-75
2022/04/12 17:01:37;;;;;;;9.07;5.45;;;;;;;20.87;45.12;100793.03;10321509;28;20066;-76
2022/04/12 17:06:39;;;;;;;8.50;5.25;;;;;;;20.94;45.72;100798.28;10352099;28;20114;-75
2022/04/12 17:11:40;;;;;;;9.68;5.85;;;;;;;20.74;45.99;100805.38;10351752;28;20093;-76
2022/04/12 17:16:40;;;;;;;11.52;6.57;;;;;;;20.67;46.69;100808.31;10335574;28;20082;-75
2022/04/12 17:21:41;;;;;;;15.25;5.05;;;;;;;20.61;46.44;100812.16;10335136;28;20514;-75
2022/04/12 17:26:41;;;;;;;6.50;4.70;;;;;;;20.44;46.31;100817.78;10334547;28;20057;-75
2022/04/12 17:31:44;;;;;;;9.25;5.97;;;;;;;20.38;46.86;100820.78;10334464;28;20073;-75
2022/04/12 17:36:44;;;;;;;5.38;4.45;;;;;;;20.08;47.89;100830.47;10335154;28;20035;-75
2022/04/12 17:41:45;;;;;;;3.50;2.72;;;;;;;19.98;48.01;100833.13;10351448;28;20475;-75
2022/04/12 17:46:49;;;;;;;6.18;2.38;;;;;;;19.82;48.61;100850.59;10350388;28;20041;-75
2022/04/12 17:51:50;;;;;;;4.85;2.65;;;;;;;19.71;48.85;100846.88;10333878;28;20042;-75
2022/04/12 17:56:53;;;;;;;10.05;2.75;;;;;;;19.56;49.23;100846.69;10335096;28;20374;-75
2022/04/12 18:01:54;;;;;;;2.85;2.65;;;;;;;19.47;49.38;100846.34;10333620;28;20536;-75
2022/04/12 18:06:54;;;;;;;4.30;1.95;;;;;;;19.38;49.65;100847.88;10333423;28;20112;-75
2022/04/12 18:11:54;;;;;;;4.63;2.20;;;;;;;19.24;50.05;100847.44;10336204;28;20034;-75
2022/04/12 18:16:55;;;;;;;4.47;3.67;;;;;;;19.09;51.03;100850.84;10351347;28;20057;-75
2022/04/12 18:21:56;;;;;;;3.08;2.88;;;;;;;18.97;51.69;100861.13;10317523;28;20471;-75
2022/04/12 18:26:56;;;;;;;1.85;1.75;;;;;;;18.81;52.01;100866.38;10348878;28;20486;-75
2022/04/12 18:31:57;;;;;;;3.92;3.30;;;;;;;18.75;51.98;100867.41;10349012;28;20041;-75
2022/04/12 18:36:57;;;;;;;6.28;2.10;;;;;;;18.65;52.08;100864.47;10316935;28;20168;-75
2022/04/12 18:41:58;;;;;;;6.03;3.25;;;;;;;18.58;51.93;100889.34;10351271;28;20046;-75
2022/04/12 18:46:58;;;;;;;3.95;2.90;;;;;;;18.42;52.02;100894.84;10334702;28;20034;-75
2022/04/12 18:51:58;;;;;;;3.17;2.92;;;;;;;18.21;54.38;100910.94;10334276;28;20497;-75
2022/04/12 18:56:59;;;;;;;9.32;3.45;;;;;;;18.07;55.32;100915.91;10333023;28;20081;-75
2022/04/12 19:02:00;;;;;;;15.93;5.07;;;;;;;17.93;54.60;100905.50;10333922;28;20027;-75
2022/04/12 19:07:01;;;;;;;4.82;4.25;;;;;;;17.65;55.56;100924.41;10333472;28;20080;-75
2022/04/12 19:12:01;;;;;;;10.05;5.88;;;;;;;17.17;56.63;100938.47;10338291;28;20077;-75
2022/04/12 19:17:02;;;;;;;7.63;6.07;;;;;;;16.81;56.10;100950.50;10340555;28;20045;-75
2022/04/12 19:22:03;;;;;;;6.10;5.57;;;;;;;16.53;56.49;100965.69;10355377;28;20031;-75
2022/04/12 19:27:03;;;;;;;8.10;4.18;;;;;;;16.25;56.61;100964.44;10341393;28;20050;-75
2022/04/12 19:32:05;;;;;;;12.32;4.65;;;;;;;16.06;56.42;100962.00;10339739;28;20399;-76
2022/04/12 19:37:05;;;;;;;4.65;3.47;;;;;;;15.93;56.59;100976.66;10342957;28;20034;-74
2022/04/12 19:42:06;;;;;;;10.25;4.75;;;;;;;15.78;56.26;100968.88;10341822;28;20030;-75
2022/04/12 19:47:08;;;;;;;12.15;4.75;;;;;;;15.68;55.94;100971.31;10340134;28;20073;-75
2022/04/12 19:52:08;;;;;;;14.35;4.47;;;;;;;15.57;56.41;100972.88;10339311;28;20116;-74
2022/04/12 19:57:09;;;;;;;7.95;4.93;;;;;;;15.46;56.19;100979.94;10339545;28;20100;-75
2022/04/12 20:02:09;;;;;;;11.90;4.45;;;;;;;15.40;56.44;100980.03;10339505;28;20046;-74
2022/04/12 20:07:11;;;;;;;7.22;4.25;;;;;;;15.33;56.65;100980.09;10339756;28;20047;-76
2022/04/12 20:12:11;;;;;;;8.85;4.95;;;;;;;15.27;57.22;100981.00;10340075;28;20121;-75
2022/04/12 20:17:14;;;;;;;6.13;3.22;;;;;;;15.26;57.11;100977.44;10338808;28;20081;-76
2022/04/12 20:22:15;;;;;;;6.50;3.78;;;;;;;15.27;56.83;100989.19;10338643;28;20062;-75
2022/04/12 20:27:15;;;;;;;13.02;4.68;;;;;;;15.24;57.26;100995.94;10338322;28;20058;-75
2022/04/12 20:32:16;;;;;;;10.32;4.38;;;;;;;15.19;58.05;101003.13;10338617;28;20394;-76
2022/04/12 20:37:16;;;;;;;6.07;3.70;;;;;;;15.18;57.56;101005.00;10322563;28;20034;-80
2022/04/12 20:42:16;;;;;;;6.97;4.63;;;;;;;15.20;58.11;101011.09;10337543;28;20081;-75
2022/04/12 20:47:17;;;;;;;9.98;4.15;;;;;;;15.20;58.15;101005.63;10337303;28;20042;-75
2022/04/12 20:52:22;;;;;;;7.15;4.35;;;;;;;15.20;58.14;101011.09;10319128;28;20030;-74
2022/04/12 20:57:23;;;;;;;23.40;3.40;;;;;;;15.20;58.78;101023.91;10337078;28;20070;-75
2022/04/12 21:02:23;;;;;;;7.75;4.45;;;;;;;15.15;59.77;101018.28;10337781;28;20054;-75
2022/04/12 21:07:24;;;;;;;14.48;4.47;;;;;;;15.13;59.96;101018.50;10337159;28;20390;-75
2022/04/12 21:12:24;;;;;;;10.85;3.97;;;;;;;15.10;60.72;101017.06;10352140;28;20037;-75
2022/04/12 21:17:24;;;;;;;4.45;3.72;;;;;;;15.09;60.92;101028.19;10336456;28;20411;-75
2022/04/12 21:22:25;;;;;;;8.32;3.42;;;;;;;15.08;60.79;101031.97;10335674;28;20039;-75
2022/04/12 21:27:26;;;;;;;9.07;5.05;;;;;;;15.01;61.04;101032.03;10333894;28;20058;-75
2022/04/12 21:32:27;;;;;;;13.15;5.45;;;;;;;14.93;61.43;101034.22;10335724;28;20042;-75
2022/04/12 21:37:27;;;;;;;7.57;3.08;;;;;;;14.81;61.74;101039.56;10334824;28;20034;-75
2022/04/12 21:42:29;;;;;;;7.18;4.22;;;;;;;14.66;61.17;101037.16;10334988;28;20041;-75
2022/04/12 21:47:29;;;;;;;5.95;4.05;;;;;;;14.51;61.07;101028.47;10336150;28;20541;-75
2022/04/12 21:52:30;;;;;;;4.95;4.55;;;;;;;14.47;62.20;101049.00;10349849;28;20117;-75
2022/04/12 21:57:31;;;;;;;8.10;5.30;;;;;;;14.47;62.38;101038.94;10334441;28;20045;-75
2022/04/12 22:02:31;;;;;;;6.10;3.80;;;;;;;14.55;62.06;101048.75;10335057;28;20070;-75
2022/04/12 22:07:31;;;;;;;11.52;4.30;;;;;;;14.60;62.17;101046.22;10351202;28;20039;-75
2022/04/12 22:12:32;;;;;;;5.63;4.22;;;;;;;14.54;61.80;101047.09;10333637;28;20030;-75
2022/04/12 22:17:32;;;;;;;6.53;4.10;;;;;;;14.47;62.09;101059.91;10334884;28;20041;-75
2022/04/12 22:22:33;;;;;;;10.38;4.68;;;;;;;14.38;61.73;101067.50;10335614;28;20034;-75
2022/04/12 22:27:34;;;;;;;11.50;5.95;;;;;;;14.25;62.24;101070.28;10335711;28;20120;-75
2022/04/12 22:32:34;;;;;;;5.03;4.32;;;;;;;14.10;62.83;101071.44;10317934;28;20031;-75
2022/04/12 22:37:40;;;;;;;7.88;3.83;;;;;;;13.96;63.54;101081.53;10350351;28;20039;-75
2022/04/12 22:42:44;;;;;;;12.40;4.88;;;;;;;13.89;64.43;101082.59;10332823;28;20031;-75
2022/04/12 22:47:54;;;;;;;11.82;4.93;;;;;;;13.89;64.05;101079.88;10339848;28;20088;-75
2022/04/12 22:52:58;;;;;;;6.45;5.72;;;;;;;13.86;63.59;101086.59;10342215;28;20034;-75
2022/04/12 22:57:58;;;;;;;10.55;5.55;;;;;;;13.75;63.74;101091.84;10342613;28;20038;-75
2022/04/12 23:02:58;;;;;;;11.68;6.10;;;;;;;13.64;64.51;101090.63;10340834;28;20038;-75